sensor_id;sensor_type;location;lat;lon;timestamp;P1;durP1;ratioP1;P2;durP2;ratioP2
15287;SDS011;7745;48.708;9.026;2024-01-27T00:00:57;4.73;;;2.70;;
15287;SDS011;7745;48.708;9.026;2024-01-27T00:03:28;3.23;;;2.43;;
15287;SDS011;7745;48.708;9.026;2024-01-27T00:06:06;5.23;;;2.53;;
15287;SDS011;7745;48.708;9.026;2024-01-27T00:08:52;4.13;;;2.53;;
15287;SDS011;7745;48.708;9.026;2024-01-27T00:11:40;3.23;;;2.67;;
15287;SDS011;7745;48.708;9.026;2024-01-27T00:14:18;3.40;;;2.47;;
15287;SDS011;7745;48.708;9.026;2024-01-27T00:16:54;4.60;;;2.73;;
15287;SDS011;7745;48.708;9.026;2024-01-27T00:19:30;8.00;;;2.70;;
15287;SDS011;7745;48.708;9.026;2024-01-27T00:22:07;4.73;;;2.70;;
15287;SDS011;7745;48.708;9.026;2024-01-27T00:24:54;4.47;;;2.60;;
15287;SDS011;7745;48.708;9.026;2024-01-27T00:27:41;6.10;;;2.60;;
15287;SDS011;7745;48.708;9.026;2024-01-27T00:30:11;4.23;;;2.90;;
15287;SDS011;7745;48.708;9.026;2024-01-27T00:32:42;5.80;;;2.57;;
15287;SDS011;7745;48.708;9.026;2024-01-27T00:35:17;4.13;;;2.50;;
15287;SDS011;7745;48.708;9.026;2024-01-27T00:37:49;4.97;;;2.90;;
15287;SDS011;7745;48.708;9.026;2024-01-27T00:40:23;4.43;;;2.50;;
15287;SDS011;7745;48.708;9.026;2024-01-27T00:42:55;3.23;;;2.43;;
15287;SDS011;7745;48.708;9.026;2024-01-27T00:45:34;5.67;;;2.50;;
15287;SDS011;7745;48.708;9.026;2024-01-27T00:48:06;4.43;;;2.97;;
15287;SDS011;7745;48.708;9.026;2024-01-27T00:50:35;4.77;;;2.70;;
15287;SDS011;7745;48.708;9.026;2024-01-27T00:53:05;4.40;;;3.13;;
15287;SDS011;7745;48.708;9.026;2024-01-27T00:55:40;3.37;;;2.90;;
15287;SDS011;7745;48.708;9.026;2024-01-27T00:58:16;3.83;;;2.60;;
15287;SDS011;7745;48.708;9.026;2024-01-27T01:00:46;5.27;;;3.00;;
15287;SDS011;7745;48.708;9.026;2024-01-27T01:03:15;3.97;;;2.13;;
15287;SDS011;7745;48.708;9.026;2024-01-27T01:05:48;7.97;;;3.10;;
15287;SDS011;7745;48.708;9.026;2024-01-27T01:08:15;4.47;;;2.80;;
15287;SDS011;7745;48.708;9.026;2024-01-27T01:10:49;5.87;;;2.67;;
15287;SDS011;7745;48.708;9.026;2024-01-27T01:13:18;3.00;;;2.70;;
15287;SDS011;7745;48.708;9.026;2024-01-27T01:15:47;7.27;;;3.27;;
15287;SDS011;7745;48.708;9.026;2024-01-27T01:18:18;7.37;;;3.13;;
15287;SDS011;7745;48.708;9.026;2024-01-27T01:20:46;4.67;;;2.80;;
15287;SDS011;7745;48.708;9.026;2024-01-27T01:23:19;6.03;;;3.50;;
15287;SDS011;7745;48.708;9.026;2024-01-27T01:25:52;4.37;;;2.80;;
15287;SDS011;7745;48.708;9.026;2024-01-27T01:28:23;3.37;;;2.60;;
15287;SDS011;7745;48.708;9.026;2024-01-27T01:30:50;5.43;;;2.97;;
15287;SDS011;7745;48.708;9.026;2024-01-27T01:33:17;4.43;;;2.90;;
15287;SDS011;7745;48.708;9.026;2024-01-27T01:35:47;4.67;;;2.60;;
15287;SDS011;7745;48.708;9.026;2024-01-27T01:38:20;4.63;;;2.57;;
15287;SDS011;7745;48.708;9.026;2024-01-27T01:40:49;4.40;;;2.37;;
15287;SDS011;7745;48.708;9.026;2024-01-27T01:43:16;5.97;;;2.37;;
15287;SDS011;7745;48.708;9.026;2024-01-27T01:45:44;5.03;;;2.60;;
15287;SDS011;7745;48.708;9.026;2024-01-27T01:48:11;3.93;;;2.47;;
15287;SDS011;7745;48.708;9.026;2024-01-27T01:50:41;6.93;;;2.53;;
15287;SDS011;7745;48.708;9.026;2024-01-27T01:53:11;5.73;;;2.67;;
15287;SDS011;7745;48.708;9.026;2024-01-27T01:55:40;5.53;;;2.67;;
15287;SDS011;7745;48.708;9.026;2024-01-27T01:58:07;4.03;;;2.40;;
15287;SDS011;7745;48.708;9.026;2024-01-27T02:00:37;4.17;;;2.23;;
15287;SDS011;7745;48.708;9.026;2024-01-27T02:03:05;3.93;;;1.97;;
15287;SDS011;7745;48.708;9.026;2024-01-27T02:05:37;5.27;;;2.27;;
15287;SDS011;7745;48.708;9.026;2024-01-27T02:08:05;5.33;;;2.60;;
15287;SDS011;7745;48.708;9.026;2024-01-27T02:10:35;6.53;;;2.33;;
15287;SDS011;7745;48.708;9.026;2024-01-27T02:13:14;4.90;;;2.80;;
15287;SDS011;7745;48.708;9.026;2024-01-27T02:15:43;3.50;;;2.23;;
15287;SDS011;7745;48.708;9.026;2024-01-27T02:18:18;8.17;;;2.70;;
15287;SDS011;7745;48.708;9.026;2024-01-27T02:20:56;6.00;;;2.43;;
15287;SDS011;7745;48.708;9.026;2024-01-27T02:23:25;3.10;;;2.13;;
15287;SDS011;7745;48.708;9.026;2024-01-27T02:26:07;6.37;;;2.37;;
15287;SDS011;7745;48.708;9.026;2024-01-27T02:28:44;5.40;;;2.37;;
15287;SDS011;7745;48.708;9.026;2024-01-27T02:31:24;4.90;;;2.20;;
15287;SDS011;7745;48.708;9.026;2024-01-27T02:33:53;5.23;;;2.20;;
15287;SDS011;7745;48.708;9.026;2024-01-27T02:36:20;5.80;;;2.53;;
15287;SDS011;7745;48.708;9.026;2024-01-27T02:39:00;6.27;;;2.43;;
15287;SDS011;7745;48.708;9.026;2024-01-27T02:41:43;5.07;;;2.00;;
15287;SDS011;7745;48.708;9.026;2024-01-27T02:44:13;6.37;;;2.50;;
15287;SDS011;7745;48.708;9.026;2024-01-27T02:46:44;4.10;;;2.30;;
15287;SDS011;7745;48.708;9.026;2024-01-27T02:49:23;6.20;;;2.00;;
15287;SDS011;7745;48.708;9.026;2024-01-27T02:52:15;4.90;;;2.20;;
15287;SDS011;7745;48.708;9.026;2024-01-27T02:54:46;2.93;;;2.10;;
15287;SDS011;7745;48.708;9.026;2024-01-27T02:57:17;3.67;;;2.10;;
15287;SDS011;7745;48.708;9.026;2024-01-27T02:59:57;4.27;;;1.73;;
15287;SDS011;7745;48.708;9.026;2024-01-27T03:02:33;3.43;;;2.00;;
15287;SDS011;7745;48.708;9.026;2024-01-27T03:05:14;7.40;;;2.30;;
15287;SDS011;7745;48.708;9.026;2024-01-27T03:07:45;4.57;;;2.00;;
15287;SDS011;7745;48.708;9.026;2024-01-27T03:10:15;5.07;;;2.20;;
15287;SDS011;7745;48.708;9.026;2024-01-27T03:12:47;5.30;;;2.50;;
15287;SDS011;7745;48.708;9.026;2024-01-27T03:15:22;7.63;;;2.30;;
15287;SDS011;7745;48.708;9.026;2024-01-27T03:17:57;7.67;;;2.53;;
15287;SDS011;7745;48.708;9.026;2024-01-27T03:20:28;5.40;;;2.50;;
15287;SDS011;7745;48.708;9.026;2024-01-27T03:22:58;4.03;;;2.40;;
15287;SDS011;7745;48.708;9.026;2024-01-27T03:25:31;5.77;;;2.00;;
15287;SDS011;7745;48.708;9.026;2024-01-27T03:28:02;6.27;;;2.60;;
15287;SDS011;7745;48.708;9.026;2024-01-27T03:30:31;5.17;;;2.50;;
15287;SDS011;7745;48.708;9.026;2024-01-27T03:33:06;6.23;;;2.67;;
15287;SDS011;7745;48.708;9.026;2024-01-27T03:35:52;5.87;;;2.57;;
15287;SDS011;7745;48.708;9.026;2024-01-27T03:38:35;3.57;;;2.60;;
15287;SDS011;7745;48.708;9.026;2024-01-27T03:41:27;4.30;;;2.40;;
15287;SDS011;7745;48.708;9.026;2024-01-27T03:43:57;5.60;;;2.37;;
15287;SDS011;7745;48.708;9.026;2024-01-27T03:46:48;6.47;;;2.70;;
15287;SDS011;7745;48.708;9.026;2024-01-27T03:49:18;6.93;;;2.60;;
15287;SDS011;7745;48.708;9.026;2024-01-27T03:51:56;4.50;;;2.60;;
15287;SDS011;7745;48.708;9.026;2024-01-27T03:54:25;7.40;;;3.00;;
15287;SDS011;7745;48.708;9.026;2024-01-27T03:56:58;4.63;;;2.60;;
15287;SDS011;7745;48.708;9.026;2024-01-27T03:59:32;5.37;;;2.70;;
15287;SDS011;7745;48.708;9.026;2024-01-27T04:02:06;3.70;;;2.70;;
15287;SDS011;7745;48.708;9.026;2024-01-27T04:04:49;4.03;;;2.50;;
15287;SDS011;7745;48.708;9.026;2024-01-27T04:07:36;9.93;;;7.27;;
15287;SDS011;7745;48.708;9.026;2024-01-27T04:10:11;9.57;;;4.40;;
15287;SDS011;7745;48.708;9.026;2024-01-27T04:12:42;5.93;;;2.80;;
15287;SDS011;7745;48.708;9.026;2024-01-27T04:15:25;8.93;;;2.87;;
15287;SDS011;7745;48.708;9.026;2024-01-27T04:17:55;9.33;;;2.73;;
15287;SDS011;7745;48.708;9.026;2024-01-27T04:20:22;5.57;;;2.60;;
15287;SDS011;7745;48.708;9.026;2024-01-27T04:22:52;5.40;;;2.10;;
15287;SDS011;7745;48.708;9.026;2024-01-27T04:25:33;8.27;;;2.40;;
15287;SDS011;7745;48.708;9.026;2024-01-27T04:28:03;6.27;;;2.40;;
15287;SDS011;7745;48.708;9.026;2024-01-27T04:30:48;8.87;;;2.50;;
15287;SDS011;7745;48.708;9.026;2024-01-27T04:33:18;4.67;;;2.43;;
15287;SDS011;7745;48.708;9.026;2024-01-27T04:35:55;7.10;;;3.10;;
15287;SDS011;7745;48.708;9.026;2024-01-27T04:38:32;5.03;;;2.50;;
15287;SDS011;7745;48.708;9.026;2024-01-27T04:41:04;4.70;;;2.80;;
15287;SDS011;7745;48.708;9.026;2024-01-27T04:43:33;4.60;;;2.60;;
15287;SDS011;7745;48.708;9.026;2024-01-27T04:46:02;4.57;;;2.60;;
15287;SDS011;7745;48.708;9.026;2024-01-27T04:48:36;6.47;;;2.63;;
15287;SDS011;7745;48.708;9.026;2024-01-27T04:51:17;4.43;;;2.40;;
15287;SDS011;7745;48.708;9.026;2024-01-27T04:53:47;5.77;;;2.70;;
15287;SDS011;7745;48.708;9.026;2024-01-27T04:56:18;6.43;;;2.90;;
15287;SDS011;7745;48.708;9.026;2024-01-27T04:58:48;3.83;;;2.37;;
15287;SDS011;7745;48.708;9.026;2024-01-27T05:01:22;6.63;;;2.63;;
15287;SDS011;7745;48.708;9.026;2024-01-27T05:03:52;6.23;;;2.53;;
15287;SDS011;7745;48.708;9.026;2024-01-27T05:06:24;9.07;;;2.47;;
15287;SDS011;7745;48.708;9.026;2024-01-27T05:09:13;9.47;;;2.60;;
15287;SDS011;7745;48.708;9.026;2024-01-27T05:11:48;5.33;;;2.70;;
15287;SDS011;7745;48.708;9.026;2024-01-27T05:14:18;4.70;;;2.50;;
15287;SDS011;7745;48.708;9.026;2024-01-27T05:16:49;6.17;;;2.77;;
15287;SDS011;7745;48.708;9.026;2024-01-27T05:19:23;6.57;;;2.90;;
15287;SDS011;7745;48.708;9.026;2024-01-27T05:21:50;3.60;;;2.50;;
15287;SDS011;7745;48.708;9.026;2024-01-27T05:24:18;5.43;;;2.57;;
15287;SDS011;7745;48.708;9.026;2024-01-27T05:26:49;5.20;;;2.43;;
15287;SDS011;7745;48.708;9.026;2024-01-27T05:29:30;10.47;;;2.60;;
15287;SDS011;7745;48.708;9.026;2024-01-27T05:32:10;8.23;;;2.87;;
15287;SDS011;7745;48.708;9.026;2024-01-27T05:34:40;6.10;;;2.60;;
15287;SDS011;7745;48.708;9.026;2024-01-27T05:37:20;6.40;;;2.90;;
15287;SDS011;7745;48.708;9.026;2024-01-27T05:39:55;4.13;;;2.33;;
15287;SDS011;7745;48.708;9.026;2024-01-27T05:42:40;5.73;;;2.57;;
15287;SDS011;7745;48.708;9.026;2024-01-27T05:45:10;3.60;;;2.63;;
15287;SDS011;7745;48.708;9.026;2024-01-27T05:47:45;6.30;;;3.20;;
15287;SDS011;7745;48.708;9.026;2024-01-27T05:50:24;3.60;;;2.33;;
15287;SDS011;7745;48.708;9.026;2024-01-27T05:52:55;9.53;;;2.90;;
15287;SDS011;7745;48.708;9.026;2024-01-27T05:55:28;8.60;;;3.10;;
15287;SDS011;7745;48.708;9.026;2024-01-27T05:57:55;5.67;;;2.83;;
15287;SDS011;7745;48.708;9.026;2024-01-27T06:00:31;6.53;;;2.80;;
15287;SDS011;7745;48.708;9.026;2024-01-27T06:03:12;8.10;;;2.53;;
15287;SDS011;7745;48.708;9.026;2024-01-27T06:05:39;6.03;;;2.80;;
15287;SDS011;7745;48.708;9.026;2024-01-27T06:08:07;7.23;;;3.43;;
15287;SDS011;7745;48.708;9.026;2024-01-27T06:10:34;7.10;;;3.20;;
15287;SDS011;7745;48.708;9.026;2024-01-27T06:13:03;7.07;;;3.40;;
15287;SDS011;7745;48.708;9.026;2024-01-27T06:15:31;5.80;;;3.00;;
15287;SDS011;7745;48.708;9.026;2024-01-27T06:17:57;5.30;;;2.83;;
15287;SDS011;7745;48.708;9.026;2024-01-27T06:20:30;5.73;;;3.20;;
15287;SDS011;7745;48.708;9.026;2024-01-27T06:22:56;5.33;;;2.97;;
15287;SDS011;7745;48.708;9.026;2024-01-27T06:25:24;7.73;;;3.30;;
15287;SDS011;7745;48.708;9.026;2024-01-27T06:27:53;7.10;;;3.13;;
15287;SDS011;7745;48.708;9.026;2024-01-27T06:30:20;6.23;;;3.40;;
15287;SDS011;7745;48.708;9.026;2024-01-27T06:32:47;9.07;;;3.87;;
15287;SDS011;7745;48.708;9.026;2024-01-27T06:35:13;6.73;;;3.10;;
15287;SDS011;7745;48.708;9.026;2024-01-27T06:37:42;4.53;;;2.87;;
15287;SDS011;7745;48.708;9.026;2024-01-27T06:40:09;7.10;;;3.87;;
15287;SDS011;7745;48.708;9.026;2024-01-27T06:42:36;9.73;;;3.80;;
15287;SDS011;7745;48.708;9.026;2024-01-27T06:45:03;8.13;;;4.00;;
15287;SDS011;7745;48.708;9.026;2024-01-27T06:47:31;7.83;;;4.47;;
15287;SDS011;7745;48.708;9.026;2024-01-27T06:50:00;7.87;;;3.60;;
15287;SDS011;7745;48.708;9.026;2024-01-27T06:52:28;5.13;;;3.30;;
15287;SDS011;7745;48.708;9.026;2024-01-27T06:54:56;9.27;;;3.00;;
15287;SDS011;7745;48.708;9.026;2024-01-27T06:57:23;10.80;;;4.57;;
15287;SDS011;7745;48.708;9.026;2024-01-27T06:59:51;9.20;;;4.07;;
15287;SDS011;7745;48.708;9.026;2024-01-27T07:02:19;13.57;;;5.97;;
15287;SDS011;7745;48.708;9.026;2024-01-27T07:04:49;11.50;;;5.07;;
15287;SDS011;7745;48.708;9.026;2024-01-27T07:07:15;7.97;;;3.70;;
15287;SDS011;7745;48.708;9.026;2024-01-27T07:09:42;11.17;;;4.70;;
15287;SDS011;7745;48.708;9.026;2024-01-27T07:12:10;11.40;;;4.20;;
15287;SDS011;7745;48.708;9.026;2024-01-27T07:14:37;9.90;;;4.70;;
15287;SDS011;7745;48.708;9.026;2024-01-27T07:17:04;7.93;;;4.23;;
15287;SDS011;7745;48.708;9.026;2024-01-27T07:19:31;8.70;;;4.40;;
15287;SDS011;7745;48.708;9.026;2024-01-27T07:21:58;7.53;;;3.83;;
15287;SDS011;7745;48.708;9.026;2024-01-27T07:24:29;12.03;;;5.10;;
15287;SDS011;7745;48.708;9.026;2024-01-27T07:26:56;11.67;;;4.63;;
15287;SDS011;7745;48.708;9.026;2024-01-27T07:29:25;8.50;;;4.30;;
15287;SDS011;7745;48.708;9.026;2024-01-27T07:31:52;8.57;;;4.70;;
15287;SDS011;7745;48.708;9.026;2024-01-27T07:34:22;8.53;;;4.73;;
15287;SDS011;7745;48.708;9.026;2024-01-27T07:36:49;9.93;;;5.17;;
15287;SDS011;7745;48.708;9.026;2024-01-27T07:39:18;9.80;;;5.80;;
15287;SDS011;7745;48.708;9.026;2024-01-27T07:41:45;12.03;;;6.30;;
15287;SDS011;7745;48.708;9.026;2024-01-27T07:44:14;13.23;;;7.20;;
15287;SDS011;7745;48.708;9.026;2024-01-27T07:46:42;18.37;;;7.97;;
15287;SDS011;7745;48.708;9.026;2024-01-27T07:49:14;20.67;;;9.53;;
15287;SDS011;7745;48.708;9.026;2024-01-27T07:51:43;35.00;;;13.43;;
15287;SDS011;7745;48.708;9.026;2024-01-27T07:54:11;41.93;;;17.53;;
15287;SDS011;7745;48.708;9.026;2024-01-27T07:56:38;55.23;;;20.93;;
15287;SDS011;7745;48.708;9.026;2024-01-27T07:59:06;41.07;;;17.87;;
15287;SDS011;7745;48.708;9.026;2024-01-27T08:01:38;30.27;;;14.03;;
15287;SDS011;7745;48.708;9.026;2024-01-27T08:04:07;22.40;;;10.77;;
15287;SDS011;7745;48.708;9.026;2024-01-27T08:06:34;22.53;;;9.97;;
15287;SDS011;7745;48.708;9.026;2024-01-27T08:09:11;14.93;;;8.10;;
15287;SDS011;7745;48.708;9.026;2024-01-27T08:11:38;11.90;;;6.17;;
15287;SDS011;7745;48.708;9.026;2024-01-27T08:14:05;10.20;;;4.97;;
15287;SDS011;7745;48.708;9.026;2024-01-27T08:16:34;11.83;;;6.07;;
15287;SDS011;7745;48.708;9.026;2024-01-27T08:19:01;9.43;;;4.87;;
15287;SDS011;7745;48.708;9.026;2024-01-27T08:21:29;10.90;;;4.40;;
15287;SDS011;7745;48.708;9.026;2024-01-27T08:23:59;9.33;;;4.23;;
15287;SDS011;7745;48.708;9.026;2024-01-27T08:26:26;7.17;;;4.10;;
15287;SDS011;7745;48.708;9.026;2024-01-27T08:29:01;9.70;;;4.50;;
15287;SDS011;7745;48.708;9.026;2024-01-27T08:31:32;8.43;;;4.33;;
15287;SDS011;7745;48.708;9.026;2024-01-27T08:33:59;6.80;;;3.83;;
15287;SDS011;7745;48.708;9.026;2024-01-27T08:36:26;11.53;;;6.23;;
15287;SDS011;7745;48.708;9.026;2024-01-27T08:38:55;9.97;;;6.53;;
15287;SDS011;7745;48.708;9.026;2024-01-27T08:41:27;10.07;;;6.53;;
15287;SDS011;7745;48.708;9.026;2024-01-27T08:43:54;9.97;;;5.80;;
15287;SDS011;7745;48.708;9.026;2024-01-27T08:46:26;11.23;;;5.53;;
15287;SDS011;7745;48.708;9.026;2024-01-27T08:49:13;10.57;;;5.90;;
15287;SDS011;7745;48.708;9.026;2024-01-27T08:52:06;11.00;;;6.27;;
15287;SDS011;7745;48.708;9.026;2024-01-27T08:58:12;9.47;;;6.10;;
15287;SDS011;7745;48.708;9.026;2024-01-27T09:00:59;9.47;;;5.47;;
15287;SDS011;7745;48.708;9.026;2024-01-27T09:03:31;8.40;;;5.20;;
15287;SDS011;7745;48.708;9.026;2024-01-27T09:06:05;12.47;;;5.30;;
15287;SDS011;7745;48.708;9.026;2024-01-27T09:08:35;10.70;;;5.90;;
15287;SDS011;7745;48.708;9.026;2024-01-27T09:11:02;19.40;;;8.53;;
15287;SDS011;7745;48.708;9.026;2024-01-27T09:13:35;11.47;;;5.77;;
15287;SDS011;7745;48.708;9.026;2024-01-27T09:16:02;13.33;;;5.63;;
15287;SDS011;7745;48.708;9.026;2024-01-27T09:18:29;11.27;;;6.03;;
15287;SDS011;7745;48.708;9.026;2024-01-27T09:20:56;11.53;;;5.77;;
15287;SDS011;7745;48.708;9.026;2024-01-27T09:23:23;11.20;;;5.77;;
15287;SDS011;7745;48.708;9.026;2024-01-27T09:25:50;15.53;;;6.37;;
15287;SDS011;7745;48.708;9.026;2024-01-27T09:28:17;14.90;;;6.30;;
15287;SDS011;7745;48.708;9.026;2024-01-27T09:30:45;11.27;;;6.70;;
15287;SDS011;7745;48.708;9.026;2024-01-27T09:33:12;11.67;;;6.97;;
15287;SDS011;7745;48.708;9.026;2024-01-27T09:35:39;10.53;;;6.63;;
15287;SDS011;7745;48.708;9.026;2024-01-27T09:38:06;10.17;;;6.33;;
15287;SDS011;7745;48.708;9.026;2024-01-27T09:40:35;12.30;;;6.43;;
15287;SDS011;7745;48.708;9.026;2024-01-27T09:43:02;11.73;;;6.37;;
15287;SDS011;7745;48.708;9.026;2024-01-27T09:45:29;11.47;;;6.33;;
15287;SDS011;7745;48.708;9.026;2024-01-27T09:48:10;9.97;;;5.50;;
15287;SDS011;7745;48.708;9.026;2024-01-27T09:50:52;9.47;;;4.90;;
15287;SDS011;7745;48.708;9.026;2024-01-27T09:53:31;6.23;;;4.87;;
15287;SDS011;7745;48.708;9.026;2024-01-27T09:55:58;7.87;;;5.00;;
15287;SDS011;7745;48.708;9.026;2024-01-27T09:58:27;10.40;;;5.20;;
15287;SDS011;7745;48.708;9.026;2024-01-27T10:01:03;10.97;;;5.23;;
15287;SDS011;7745;48.708;9.026;2024-01-27T10:03:33;8.77;;;5.10;;
15287;SDS011;7745;48.708;9.026;2024-01-27T10:06:07;9.73;;;5.13;;
15287;SDS011;7745;48.708;9.026;2024-01-27T10:08:39;8.27;;;4.77;;
15287;SDS011;7745;48.708;9.026;2024-01-27T10:11:09;6.47;;;5.13;;
15287;SDS011;7745;48.708;9.026;2024-01-27T10:13:43;15.30;;;5.93;;
15287;SDS011;7745;48.708;9.026;2024-01-27T10:19:25;7.93;;;5.43;;
15287;SDS011;7745;48.708;9.026;2024-01-27T10:21:59;8.83;;;4.57;;
15287;SDS011;7745;48.708;9.026;2024-01-27T10:24:27;8.30;;;4.50;;
15287;SDS011;7745;48.708;9.026;2024-01-27T10:26:58;8.93;;;5.03;;
15287;SDS011;7745;48.708;9.026;2024-01-27T10:29:26;13.60;;;5.10;;
15287;SDS011;7745;48.708;9.026;2024-01-27T10:31:53;10.33;;;5.37;;
15287;SDS011;7745;48.708;9.026;2024-01-27T10:34:34;11.10;;;5.60;;
15287;SDS011;7745;48.708;9.026;2024-01-27T10:40:35;11.83;;;5.33;;
15287;SDS011;7745;48.708;9.026;2024-01-27T10:43:21;8.30;;;4.80;;
15287;SDS011;7745;48.708;9.026;2024-01-27T10:45:48;13.30;;;5.27;;
15287;SDS011;7745;48.708;9.026;2024-01-27T10:48:16;10.97;;;5.10;;
15287;SDS011;7745;48.708;9.026;2024-01-27T10:50:44;9.63;;;5.03;;
15287;SDS011;7745;48.708;9.026;2024-01-27T10:53:17;9.60;;;4.73;;
15287;SDS011;7745;48.708;9.026;2024-01-27T10:55:48;13.17;;;5.53;;
15287;SDS011;7745;48.708;9.026;2024-01-27T10:58:19;9.97;;;5.23;;
15287;SDS011;7745;48.708;9.026;2024-01-27T11:00:47;8.53;;;4.90;;
15287;SDS011;7745;48.708;9.026;2024-01-27T11:03:17;6.87;;;4.67;;
15287;SDS011;7745;48.708;9.026;2024-01-27T11:05:46;10.77;;;4.97;;
15287;SDS011;7745;48.708;9.026;2024-01-27T11:08:13;11.53;;;4.57;;
15287;SDS011;7745;48.708;9.026;2024-01-27T11:10:42;8.50;;;4.03;;
15287;SDS011;7745;48.708;9.026;2024-01-27T11:13:09;8.97;;;4.90;;
15287;SDS011;7745;48.708;9.026;2024-01-27T11:15:37;9.63;;;4.80;;
15287;SDS011;7745;48.708;9.026;2024-01-27T11:18:04;10.63;;;4.93;;
15287;SDS011;7745;48.708;9.026;2024-01-27T11:20:31;11.10;;;4.57;;
15287;SDS011;7745;48.708;9.026;2024-01-27T11:23:08;14.80;;;5.50;;
15287;SDS011;7745;48.708;9.026;2024-01-27T11:25:38;11.13;;;5.00;;
15287;SDS011;7745;48.708;9.026;2024-01-27T11:28:12;9.47;;;5.07;;
15287;SDS011;7745;48.708;9.026;2024-01-27T11:30:41;8.13;;;4.03;;
15287;SDS011;7745;48.708;9.026;2024-01-27T11:33:12;8.63;;;3.87;;
15287;SDS011;7745;48.708;9.026;2024-01-27T11:35:39;6.33;;;3.60;;
15287;SDS011;7745;48.708;9.026;2024-01-27T11:38:06;9.23;;;4.47;;
15287;SDS011;7745;48.708;9.026;2024-01-27T11:40:43;9.70;;;4.10;;
15287;SDS011;7745;48.708;9.026;2024-01-27T11:43:11;8.57;;;3.87;;
15287;SDS011;7745;48.708;9.026;2024-01-27T11:45:39;11.10;;;3.83;;
15287;SDS011;7745;48.708;9.026;2024-01-27T11:48:05;9.40;;;4.03;;
15287;SDS011;7745;48.708;9.026;2024-01-27T11:50:32;9.13;;;4.03;;
15287;SDS011;7745;48.708;9.026;2024-01-27T11:52:59;9.17;;;3.27;;
15287;SDS011;7745;48.708;9.026;2024-01-27T11:55:26;7.37;;;3.33;;
15287;SDS011;7745;48.708;9.026;2024-01-27T11:57:54;5.93;;;3.33;;
15287;SDS011;7745;48.708;9.026;2024-01-27T12:00:21;10.10;;;3.63;;
15287;SDS011;7745;48.708;9.026;2024-01-27T12:02:49;8.30;;;3.23;;
15287;SDS011;7745;48.708;9.026;2024-01-27T12:05:17;10.93;;;3.70;;
15287;SDS011;7745;48.708;9.026;2024-01-27T12:07:44;10.30;;;4.00;;
15287;SDS011;7745;48.708;9.026;2024-01-27T12:10:10;8.77;;;3.50;;
15287;SDS011;7745;48.708;9.026;2024-01-27T12:12:37;9.77;;;3.77;;
15287;SDS011;7745;48.708;9.026;2024-01-27T12:15:05;7.77;;;3.70;;
15287;SDS011;7745;48.708;9.026;2024-01-27T12:17:33;8.40;;;3.67;;
15287;SDS011;7745;48.708;9.026;2024-01-27T12:20:00;7.23;;;3.80;;
15287;SDS011;7745;48.708;9.026;2024-01-27T12:22:27;8.53;;;3.73;;
15287;SDS011;7745;48.708;9.026;2024-01-27T12:24:55;13.47;;;3.30;;
15287;SDS011;7745;48.708;9.026;2024-01-27T12:27:33;7.87;;;3.10;;
15287;SDS011;7745;48.708;9.026;2024-01-27T12:30:00;6.60;;;3.30;;
15287;SDS011;7745;48.708;9.026;2024-01-27T12:32:29;7.60;;;2.80;;
15287;SDS011;7745;48.708;9.026;2024-01-27T12:34:57;8.43;;;2.67;;
15287;SDS011;7745;48.708;9.026;2024-01-27T12:37:25;7.73;;;2.33;;
15287;SDS011;7745;48.708;9.026;2024-01-27T12:39:55;7.53;;;2.63;;
15287;SDS011;7745;48.708;9.026;2024-01-27T12:42:36;6.17;;;2.60;;
15287;SDS011;7745;48.708;9.026;2024-01-27T12:45:03;6.77;;;2.57;;
15287;SDS011;7745;48.708;9.026;2024-01-27T12:47:31;7.23;;;2.60;;
15287;SDS011;7745;48.708;9.026;2024-01-27T12:49:58;11.53;;;3.60;;
15287;SDS011;7745;48.708;9.026;2024-01-27T12:52:25;5.90;;;2.60;;
15287;SDS011;7745;48.708;9.026;2024-01-27T12:54:52;4.67;;;2.57;;
15287;SDS011;7745;48.708;9.026;2024-01-27T12:57:27;9.13;;;3.17;;
15287;SDS011;7745;48.708;9.026;2024-01-27T13:00:02;7.23;;;2.70;;
15287;SDS011;7745;48.708;9.026;2024-01-27T13:02:36;3.23;;;2.00;;
15287;SDS011;7745;48.708;9.026;2024-01-27T13:05:03;3.83;;;1.87;;
15287;SDS011;7745;48.708;9.026;2024-01-27T13:07:30;5.00;;;2.03;;
15287;SDS011;7745;48.708;9.026;2024-01-27T13:09:57;4.00;;;1.93;;
15287;SDS011;7745;48.708;9.026;2024-01-27T13:12:24;8.23;;;2.17;;
15287;SDS011;7745;48.708;9.026;2024-01-27T13:14:51;6.13;;;2.20;;
15287;SDS011;7745;48.708;9.026;2024-01-27T13:17:20;5.53;;;1.90;;
15287;SDS011;7745;48.708;9.026;2024-01-27T13:22:34;11.07;;;2.30;;
15287;SDS011;7745;48.708;9.026;2024-01-27T13:25:01;7.93;;;1.90;;
15287;SDS011;7745;48.708;9.026;2024-01-27T13:27:37;7.63;;;1.60;;
15287;SDS011;7745;48.708;9.026;2024-01-27T13:30:04;3.20;;;1.20;;
15287;SDS011;7745;48.708;9.026;2024-01-27T13:32:32;6.33;;;1.40;;
15287;SDS011;7745;48.708;9.026;2024-01-27T13:34:59;5.77;;;1.40;;
15287;SDS011;7745;48.708;9.026;2024-01-27T13:37:27;5.23;;;1.63;;
15287;SDS011;7745;48.708;9.026;2024-01-27T13:39:58;6.80;;;1.67;;
15287;SDS011;7745;48.708;9.026;2024-01-27T13:42:25;5.40;;;1.47;;
15287;SDS011;7745;48.708;9.026;2024-01-27T13:44:52;4.37;;;1.40;;
15287;SDS011;7745;48.708;9.026;2024-01-27T13:47:26;4.90;;;1.30;;
15287;SDS011;7745;48.708;9.026;2024-01-27T13:49:53;2.47;;;1.20;;
15287;SDS011;7745;48.708;9.026;2024-01-27T13:52:23;4.30;;;1.33;;
15287;SDS011;7745;48.708;9.026;2024-01-27T13:54:51;4.00;;;1.30;;
15287;SDS011;7745;48.708;9.026;2024-01-27T13:57:20;5.77;;;1.50;;
15287;SDS011;7745;48.708;9.026;2024-01-27T13:59:50;4.47;;;1.27;;
15287;SDS011;7745;48.708;9.026;2024-01-27T14:02:17;5.80;;;1.77;;
15287;SDS011;7745;48.708;9.026;2024-01-27T14:04:44;4.33;;;1.60;;
15287;SDS011;7745;48.708;9.026;2024-01-27T14:07:11;3.70;;;1.53;;
15287;SDS011;7745;48.708;9.026;2024-01-27T14:09:40;3.10;;;1.50;;
15287;SDS011;7745;48.708;9.026;2024-01-27T14:12:08;3.83;;;1.60;;
15287;SDS011;7745;48.708;9.026;2024-01-27T14:14:35;3.70;;;1.30;;
15287;SDS011;7745;48.708;9.026;2024-01-27T14:17:05;3.43;;;1.60;;
15287;SDS011;7745;48.708;9.026;2024-01-27T14:19:32;4.97;;;1.37;;
15287;SDS011;7745;48.708;9.026;2024-01-27T14:21:59;7.53;;;2.97;;
15287;SDS011;7745;48.708;9.026;2024-01-27T14:24:25;5.37;;;2.37;;
15287;SDS011;7745;48.708;9.026;2024-01-27T14:26:52;5.33;;;2.00;;
15287;SDS011;7745;48.708;9.026;2024-01-27T14:29:20;4.20;;;1.80;;
15287;SDS011;7745;48.708;9.026;2024-01-27T14:31:47;4.57;;;2.03;;
15287;SDS011;7745;48.708;9.026;2024-01-27T14:34:20;5.77;;;1.97;;
15287;SDS011;7745;48.708;9.026;2024-01-27T14:39:19;5.27;;;1.83;;
15287;SDS011;7745;48.708;9.026;2024-01-27T14:41:48;8.40;;;1.70;;
15287;SDS011;7745;48.708;9.026;2024-01-27T14:44:15;5.37;;;1.87;;
15287;SDS011;7745;48.708;9.026;2024-01-27T14:46:43;3.33;;;1.70;;
15287;SDS011;7745;48.708;9.026;2024-01-27T14:49:10;4.87;;;2.10;;
15287;SDS011;7745;48.708;9.026;2024-01-27T14:51:37;3.97;;;1.90;;
15287;SDS011;7745;48.708;9.026;2024-01-27T14:54:04;6.80;;;2.20;;
15287;SDS011;7745;48.708;9.026;2024-01-27T14:56:31;6.23;;;2.20;;
15287;SDS011;7745;48.708;9.026;2024-01-27T14:58:58;8.93;;;2.23;;
15287;SDS011;7745;48.708;9.026;2024-01-27T15:01:25;5.77;;;2.03;;
15287;SDS011;7745;48.708;9.026;2024-01-27T15:03:54;5.30;;;2.03;;
15287;SDS011;7745;48.708;9.026;2024-01-27T15:06:21;4.23;;;1.70;;
15287;SDS011;7745;48.708;9.026;2024-01-27T15:08:48;8.83;;;1.90;;
15287;SDS011;7745;48.708;9.026;2024-01-27T15:11:15;7.47;;;1.80;;
15287;SDS011;7745;48.708;9.026;2024-01-27T15:13:42;10.27;;;2.27;;
15287;SDS011;7745;48.708;9.026;2024-01-27T15:16:09;6.47;;;2.80;;
15287;SDS011;7745;48.708;9.026;2024-01-27T15:18:35;5.60;;;2.03;;
15287;SDS011;7745;48.708;9.026;2024-01-27T15:21:07;8.50;;;2.30;;
15287;SDS011;7745;48.708;9.026;2024-01-27T15:23:33;6.87;;;3.03;;
15287;SDS011;7745;48.708;9.026;2024-01-27T15:26:01;6.50;;;2.37;;
15287;SDS011;7745;48.708;9.026;2024-01-27T15:28:30;5.57;;;2.53;;
15287;SDS011;7745;48.708;9.026;2024-01-27T15:30:57;6.27;;;3.13;;
15287;SDS011;7745;48.708;9.026;2024-01-27T15:33:24;7.90;;;2.77;;
15287;SDS011;7745;48.708;9.026;2024-01-27T15:35:51;7.07;;;2.93;;